Time;durP1;ratioP1;P1;durP2;ratioP2;P2;SDS_P1;SDS_P2;PMS_P1;PMS_P2;Temp;Humidity;BMP_temperature;BMP_pressure;BME280_temperature;BME280_humidity;BME280_pressure;Samples;Min_cycle;Max_cycle;Signal;HPM_P1;HPM_P2
2023/04/27 00:00:06;;;;;;;5.50;2.58;;;7.90;99.90;;;7.30;93.27;97314.97;5022723;28;20035;-38
2023/04/27 00:02:31;;;;;;;4.43;2.00;;;7.90;99.90;;;7.24;93.24;97297.63;5020120;28;20065;-38
2023/04/27 00:04:57;;;;;;;5.40;2.40;;;7.90;99.90;;;7.30;95.88;97311.50;5018513;28;20493;-37
2023/04/27 00:07:23;;;;;;;3.88;2.30;;;7.90;99.90;;;7.25;97.72;97311.63;5015511;28;20505;-37
2023/04/27 00:09:50;;;;;;;4.57;2.45;;;7.80;99.90;;;7.24;99.08;97307.28;5018053;28;20067;-37
2023/04/27 00:12:16;;;;;;;4.32;2.40;;;7.80;99.90;;;7.21;100.00;97308.22;5021065;28;20033;-38
2023/04/27 00:14:42;;;;;;;3.10;2.00;;;7.70;99.90;;;7.11;100.00;97291.00;5020742;28;20071;-37
2023/04/27 00:17:07;;;;;;;4.07;2.60;;;7.80;99.90;;;7.19;100.00;97303.91;5018393;28;20036;-37
2023/04/27 00:19:33;;;;;;;5.47;2.70;;;7.70;99.90;;;7.10;100.00;97294.50;5010986;28;20045;-37
2023/04/27 00:21:59;;;;;;;7.22;2.97;;;7.70;99.90;;;7.13;100.00;97302.28;5022156;28;20033;-37
2023/04/27 00:24:25;;;;;;;5.78;2.72;;;7.70;99.90;;;7.14;100.00;97295.28;5023875;28;20163;-37
2023/04/27 00:26:50;;;;;;;3.83;2.55;;;7.70;99.90;;;6.97;100.00;97270.34;5019230;28;20107;-37
2023/04/27 00:29:16;;;;;;;5.32;2.80;;;7.70;99.90;;;7.11;100.00;97298.00;5021717;28;20033;-37
2023/04/27 00:31:42;;;;;;;5.00;3.22;;;7.60;99.90;;;7.10;100.00;97291.88;5020259;28;20034;-38
2023/04/27 00:34:07;;;;;;;4.82;3.05;;;7.60;99.90;;;7.09;100.00;97295.41;5020219;28;20025;-37
2023/04/27 00:36:34;;;;;;;6.47;2.90;;;7.60;99.90;;;7.08;100.00;97288.44;5018817;28;20029;-38
2023/04/27 00:38:59;;;;;;;6.82;2.83;;;7.60;99.90;;;6.89;100.00;97264.41;5019432;28;20041;-37
2023/04/27 00:41:25;;;;;;;4.43;2.60;;;7.60;99.90;;;7.03;100.00;97288.56;5020562;28;20041;-37
2023/04/27 00:43:51;;;;;;;5.88;2.35;;;7.50;99.90;;;7.01;100.00;97284.25;5018172;28;20037;-37
2023/04/27 00:46:18;;;;;;;3.75;2.45;;;7.60;99.90;;;7.00;100.00;97277.25;5015078;28;20770;-37
2023/04/27 00:48:44;;;;;;;6.95;2.80;;;7.60;99.90;;;7.00;100.00;97275.53;5020883;28;20053;-37
2023/04/27 00:51:10;;;;;;;5.75;2.88;;;7.60;99.90;;;6.97;100.00;97272.13;5012707;28;21023;-37
2023/04/27 00:53:37;;;;;;;4.50;2.65;;;7.50;99.90;;;6.99;100.00;97280.78;5016149;28;20032;-38
2023/04/27 00:56:05;;;;;;;4.32;2.70;;;7.50;99.90;;;6.97;100.00;97280.81;5024523;28;20032;-37
2023/04/27 00:58:31;;;;;;;5.20;3.42;;;7.50;99.90;;;6.94;100.00;97269.56;5023522;28;20440;-37
2023/04/27 01:00:58;;;;;;;4.30;2.90;;;7.50;99.90;;;6.96;100.00;97276.47;5019614;28;20037;-37
2023/04/27 01:03:25;;;;;;;5.30;3.20;;;7.50;99.90;;;6.94;100.00;97278.28;5019751;28;20042;-37
2023/04/27 01:05:50;;;;;;;7.65;3.25;;;7.50;99.90;;;6.95;100.00;97277.38;5014115;28;20041;-37
2023/04/27 01:08:16;;;;;;;4.75;3.35;;;7.50;99.90;;;6.95;100.00;97276.53;5018866;28;20044;-37
2023/04/27 01:10:42;;;;;;;4.57;3.30;;;7.50;99.90;;;6.93;100.00;97280.94;5017987;28;20065;-37
2023/04/27 01:13:09;;;;;;;7.95;3.50;;;7.50;99.90;;;6.90;100.00;97281.88;5018213;28;20028;-37
2023/04/27 01:15:34;;;;;;;4.93;2.95;;;7.40;99.90;;;6.86;100.00;97280.25;5020073;28;20888;-39
2023/04/27 01:18:01;;;;;;;6.38;3.47;;;7.40;99.90;;;6.81;100.00;97276.84;5018706;28;20034;-37
2023/04/27 01:20:29;;;;;;;7.30;3.13;;;7.40;99.90;;;6.82;100.00;97278.56;5018378;28;20158;-38
2023/04/27 01:22:55;;;;;;;6.70;3.30;;;7.40;99.90;;;6.73;100.00;97268.31;5022692;28;20114;-37
2023/04/27 01:25:21;;;;;;;8.25;3.22;;;7.40;99.90;;;6.80;100.00;97286.50;5020084;28;20041;-37
2023/04/27 01:27:47;;;;;;;4.45;3.10;;;7.30;99.90;;;6.77;100.00;97299.66;5018564;28;20183;-37
2023/04/27 01:30:13;;;;;;;5.15;3.17;;;7.30;99.90;;;6.75;100.00;97287.47;5020200;28;20034;-37
2023/04/27 01:32:40;;;;;;;5.28;3.10;;;7.30;99.90;;;6.71;100.00;97285.81;5027192;28;20025;-37
2023/04/27 01:35:06;;;;;;;8.45;3.15;;;7.30;99.90;;;6.57;100.00;97265.19;5020879;28;20033;-37
2023/04/27 01:37:32;;;;;;;7.20;3.25;;;7.30;99.90;;;6.55;100.00;97265.25;5018726;28;20032;-37
2023/04/27 01:39:58;;;;;;;4.38;2.85;;;7.20;99.90;;;6.55;100.00;97278.34;5039513;28;20844;-37
2023/04/27 01:42:23;;;;;;;6.85;3.08;;;7.20;99.90;;;6.57;100.00;97279.16;5022848;28;20033;-37
2023/04/27 01:44:49;;;;;;;5.50;3.10;;;7.10;99.90;;;6.52;100.00;97283.63;5021712;28;20236;-37
2023/04/27 01:47:16;;;;;;;4.93;3.10;;;7.10;99.90;;;6.49;100.00;97281.94;5020359;28;20961;-37
2023/04/27 01:49:42;;;;;;;4.80;3.10;;;7.10;99.90;;;6.47;100.00;97280.25;5020599;28;20382;-37
2023/04/27 01:52:08;;;;;;;5.55;3.53;;;7.00;99.90;;;6.43;100.00;97276.00;5019953;28;20028;-37
2023/04/27 01:54:34;;;;;;;5.53;3.28;;;7.00;99.90;;;6.43;100.00;97276.00;5022597;28;20037;-37
2023/04/27 01:57:00;;;;;;;5.20;2.97;;;7.00;99.90;;;6.45;100.00;97287.28;5024822;28;20025;-37
2023/04/27 01:59:27;;;;;;;6.25;3.20;;;7.10;99.90;;;6.46;100.00;97292.50;5027655;28;20029;-37
2023/04/27 02:01:53;;;;;;;6.82;3.38;;;7.00;99.90;;;6.45;100.00;97292.53;5023753;28;20106;-37
2023/04/27 02:04:19;;;;;;;6.55;3.35;;;7.00;99.90;;;6.42;100.00;97284.72;5018228;28;20083;-37
2023/04/27 02:06:45;;;;;;;5.80;3.40;;;7.00;99.90;;;6.40;100.00;97289.16;5026991;28;20032;-37
2023/04/27 02:09:12;;;;;;;7.50;3.42;;;7.00;99.90;;;6.38;100.00;97294.41;5027880;28;20040;-37
2023/04/27 02:11:37;;;;;;;7.13;3.28;;;6.90;99.90;;;6.34;100.00;97291.91;5028597;28;20029;-37
2023/04/27 02:14:03;;;;;;;6.70;3.50;;;6.90;99.90;;;6.35;100.00;97302.34;5028133;28;20381;-37
2023/04/27 02:16:29;;;;;;;5.95;3.58;;;6.90;99.90;;;6.37;100.00;97302.31;5024533;28;20489;-37
2023/04/27 02:18:55;;;;;;;5.18;3.38;;;7.00;99.90;;;6.38;100.00;97297.03;5023653;28;20056;-37
2023/04/27 02:21:21;;;;;;;4.60;3.10;;;7.00;99.90;;;6.39;100.00;97301.41;5023401;28;20026;-37
2023/04/27 02:23:46;;;;;;;5.78;3.05;;;7.00;99.90;;;6.35;100.00;97289.25;5007280;28;20120;-37
2023/04/27 02:26:21;;;;;;;8.68;3.33;;;7.00;99.90;;;6.41;100.00;97304.00;5017886;28;20033;-37
2023/04/27 02:28:47;;;;;;;5.40;3.38;;;7.00;99.90;;;6.41;100.00;97304.00;5022307;28;20040;-37
2023/04/27 02:31:14;;;;;;;5.35;3.65;;;7.00;99.90;;;6.39;100.00;97301.41;5026296;28;20420;-37
2023/04/27 02:33:40;;;;;;;4.57;3.28;;;7.00;99.90;;;6.42;100.00;97303.06;5023263;28;20025;-37
2023/04/27 02:36:07;;;;;;;6.93;3.72;;;7.00;99.90;;;6.43;100.00;97308.28;5022310;28;20071;-37
2023/04/27 02:38:34;;;;;;;6.28;3.38;;;7.00;99.90;;;6.41;100.00;97298.75;5021098;28;20434;-37
2023/04/27 02:40:59;;;;;;;6.32;3.92;;;7.00;99.90;;;6.47;100.00;97301.22;5024086;28;20048;-37
2023/04/27 02:43:25;;;;;;;5.00;3.40;;;7.00;99.90;;;6.49;100.00;97316.00;5018057;28;20034;-37
2023/04/27 02:45:51;;;;;;;6.38;3.83;;;7.10;99.90;;;6.50;100.00;97311.63;5023004;28;20182;-37
2023/04/27 02:48:16;;;;;;;7.72;3.92;;;7.10;99.90;;;6.48;100.00;97309.03;5024677;28;20413;-37
2023/04/27 02:50:43;;;;;;;7.28;4.03;;;7.10;99.90;;;6.51;100.00;97313.34;5022998;28;20067;-37
2023/04/27 02:53:10;;;;;;;6.30;4.45;;;7.10;99.90;;;6.50;100.00;97309.88;5019672;28;20380;-37
2023/04/27 02:55:36;;;;;;;10.23;4.22;;;7.00;99.90;;;6.42;100.00;97300.44;5020785;28;20116;-37
2023/04/27 02:58:03;;;;;;;6.80;4.07;;;7.10;99.90;;;6.41;100.00;97302.22;5023983;28;20109;-37
2023/04/27 03:00:28;;;;;;;9.13;4.85;;;7.10;99.90;;;6.51;100.00;97329.06;5020526;28;20061;-37
2023/04/27 03:02:55;;;;;;;7.80;4.32;;;7.10;99.90;;;6.47;100.00;97317.78;5017974;28;20067;-37
2023/04/27 03:05:21;;;;;;;7.43;4.30;;;7.10;99.90;;;6.52;100.00;97319.47;5021184;28;20029;-37
2023/04/27 03:07:47;;;;;;;5.70;4.20;;;7.10;99.90;;;6.54;100.00;97317.69;5023060;28;20465;-37
2023/04/27 03:10:12;;;;;;;7.30;4.05;;;7.10;99.90;;;6.50;100.00;97311.63;5022028;28;20045;-37
2023/04/27 03:12:38;;;;;;;8.75;4.20;;;7.10;99.90;;;6.47;100.00;97309.06;5022630;28;20037;-37
2023/04/27 03:15:04;;;;;;;5.55;3.92;;;7.10;99.90;;;6.53;100.00;97310.69;5016547;28;20033;-37
2023/04/27 03:17:30;;;;;;;12.15;4.28;;;7.10;99.90;;;6.53;100.00;97311.53;5017529;28;20031;-37
2023/04/27 03:19:56;;;;;;;6.05;3.80;;;7.10;99.90;;;6.48;100.00;97297.72;5025271;28;20381;-37
2023/04/27 03:22:22;;;;;;;6.60;4.32;;;7.10;99.90;;;6.51;100.00;97310.72;5010188;28;20122;-37
2023/04/27 03:24:48;;;;;;;6.00;3.90;;;7.10;99.90;;;6.55;100.00;97308.91;5024924;28;20032;-37
2023/04/27 03:27:14;;;;;;;8.63;4.40;;;7.10;99.90;;;6.56;100.00;97314.09;5022445;28;20024;-38
2023/04/27 03:29:39;;;;;;;7.00;4.30;;;7.20;99.90;;;6.53;100.00;97314.16;5023831;28;20405;-37
2023/04/27 03:32:05;;;;;;;8.13;4.30;;;7.10;99.90;;;6.43;100.00;97303.03;5022070;28;20422;-37
2023/04/27 03:34:31;;;;;;;7.82;4.25;;;7.10;99.90;;;6.54;100.00;97315.91;5018810;28;20036;-37
2023/04/27 03:36:57;;;;;;;7.70;3.92;;;7.10;99.90;;;6.54;100.00;97312.44;5017717;28;20048;-37
2023/04/27 03:39:23;;;;;;;9.07;4.13;;;7.10;99.90;;;6.53;100.00;97313.31;5018722;28;20029;-37
2023/04/27 03:41:48;;;;;;;7.82;3.88;;;7.10;99.90;;;6.52;100.00;97312.47;5016174;28;20382;-37
2023/04/27 03:44:14;;;;;;;6.57;4.13;;;7.10;99.90;;;6.52;100.00;97316.84;5025390;28;20029;-37
2023/04/27 03:46:40;;;;;;;6.72;4.07;;;7.10;99.90;;;6.52;100.00;97312.47;5018943;28;20045;-37
2023/04/27 03:49:06;;;;;;;5.80;3.90;;;7.10;99.90;;;6.52;100.00;97317.69;5023753;28;20033;-39
2023/04/27 03:51:32;;;;;;;7.18;4.45;;;7.10;99.90;;;6.53;100.00;97315.94;5015632;28;20298;-37
2023/04/27 03:53:58;;;;;;;9.77;4.30;;;7.10;99.90;;;6.54;100.00;97322.91;5019385;28;20017;-37
2023/04/27 03:56:24;;;;;;;7.20;3.90;;;7.10;99.90;;;6.54;100.00;97322.91;5017501;28;20108;-37
2023/04/27 03:58:51;;;;;;;9.30;3.88;;;7.10;99.90;;;6.54;100.00;97323.75;5021645;28;20025;-38
2023/04/27 04:01:17;;;;;;;8.70;4.13;;;7.10;99.90;;;6.54;100.00;97323.75;5015593;28;20025;-37
2023/04/27 04:03:44;;;;;;;8.77;3.80;;;7.10;99.90;;;6.54;100.00;97322.91;5019996;28;20393;-37
2023/04/27 04:06:09;;;;;;;6.25;4.03;;;7.10;99.90;;;6.55;100.00;97327.25;5016069;28;20064;-37
2023/04/27 04:08:36;;;;;;;7.90;4.13;;;7.10;99.90;;;6.54;100.00;97318.53;5021553;28;20121;-37
2023/04/27 04:11:02;;;;;;;8.02;4.63;;;7.10;99.90;;;6.54;100.00;97320.28;5021980;28;20036;-37
2023/04/27 04:13:28;;;;;;;7.13;4.13;;;7.10;99.90;;;6.54;100.00;97321.16;5017207;28;21107;-37
2023/04/27 04:16:05;;;;;;;7.80;4.30;;;7.10;99.90;;;6.55;100.00;97324.63;5008970;28;22018;-37
2023/04/27 04:18:31;;;;;;;6.63;4.00;;;7.10;99.90;;;6.56;100.00;97324.59;5002837;28;20304;-37
2023/04/27 04:20:57;;;;;;;7.43;4.60;;;7.10;99.90;;;6.55;100.00;97311.53;5002347;28;20037;-37
2023/04/27 04:23:23;;;;;;;8.23;4.22;;;7.10;99.90;;;6.52;100.00;97309.84;5017664;28;20581;-37
2023/04/27 04:25:49;;;;;;;8.35;4.35;;;7.10;99.90;;;6.56;100.00;97324.59;5019175;28;20488;-38
2023/04/27 04:28:15;;;;;;;6.75;4.03;;;7.10;99.90;;;6.58;100.00;97325.41;5021193;28;20033;-37
2023/04/27 04:30:42;;;;;;;7.45;4.25;;;7.10;99.90;;;6.60;100.00;97330.63;5016574;28;20809;-37
2023/04/27 04:33:08;;;;;;;7.75;4.50;;;7.20;99.90;;;6.64;100.00;97334.88;5013062;28;20439;-37
2023/04/27 04:35:37;;;;;;;6.82;4.75;;;7.20;99.90;;;6.65;100.00;97334.84;5015909;28;20308;-38
2023/04/27 04:38:03;;;;;;;6.60;4.05;;;7.20;99.90;;;6.68;100.00;97331.31;5015115;28;20033;-38
2023/04/27 04:40:29;;;;;;;6.47;4.00;;;7.20;99.90;;;6.68;100.00;97337.41;5014368;28;20068;-37
2023/04/27 04:42:55;;;;;;;10.05;4.45;;;7.30;99.90;;;6.74;100.00;97335.56;5013933;28;20654;-37
2023/04/27 04:45:21;;;;;;;6.30;4.35;;;7.30;99.90;;;6.74;100.00;97331.19;5010585;28;20024;-37
2023/04/27 04:47:48;;;;;;;6.72;4.20;;;7.30;99.90;;;6.80;100.00;97333.69;5015869;28;20033;-37
2023/04/27 04:50:14;;;;;;;7.47;4.70;;;7.40;99.90;;;6.84;100.00;97332.69;5014590;28;20072;-37
2023/04/27 04:52:40;;;;;;;7.07;4.40;;;7.40;99.90;;;6.86;100.00;97330.03;5023846;28;20120;-37
2023/04/27 04:55:06;;;;;;;8.55;4.78;;;7.50;99.90;;;6.90;100.00;97329.06;5020127;28;20041;-37
2023/04/27 04:57:31;;;;;;;6.80;4.32;;;7.50;99.90;;;6.97;100.00;97330.66;5017533;28;20033;-37
2023/04/27 04:59:57;;;;;;;6.18;4.78;;;7.50;99.90;;;7.03;100.00;97346.25;5020321;28;20737;-37
2023/04/27 05:02:23;;;;;;;5.82;4.20;;;7.60;99.90;;;7.02;100.00;97333.16;5013126;28;20028;-38
2023/04/27 05:04:50;;;;;;;7.80;4.50;;;7.60;99.90;;;7.15;100.00;97341.59;5006387;28;20037;-37
2023/04/27 05:07:16;;;;;;;7.75;5.28;;;7.70;99.90;;;7.22;100.00;97343.19;5019348;28;20042;-37
2023/04/27 05:09:42;;;;;;;9.23;5.20;;;7.70;99.90;;;7.27;100.00;97338.69;5002435;28;20036;-37
2023/04/27 05:12:08;;;;;;;8.93;4.85;;;7.80;99.90;;;7.39;100.00;97340.13;5016225;28;20044;-39
2023/04/27 05:14:34;;;;;;;10.57;5.43;;;7.90;99.90;;;7.45;100.00;97338.22;5013496;28;20076;-38
2023/04/27 05:17:00;;;;;;;10.85;5.03;;;8.00;99.90;;;7.54;100.00;97344.13;5012701;28;20690;-37
2023/04/27 05:19:29;;;;;;;7.07;4.72;;;8.10;99.90;;;7.60;100.00;97333.47;5018668;28;20025;-37
2023/04/27 05:21:57;;;;;;;7.93;4.45;;;8.10;99.90;;;7.71;100.00;97348.94;5013202;28;20025;-37
2023/04/27 05:24:23;;;;;;;9.52;5.22;;;8.20;99.90;;;7.78;100.00;97337.38;5011269;28;20028;-37
2023/04/27 05:26:48;;;;;;;9.00;5.70;;;8.30;99.90;;;7.83;100.00;97338.13;5015618;28;20102;-37
2023/04/27 05:29:14;;;;;;;9.98;4.90;;;8.40;99.90;;;7.95;100.00;97350.03;5015502;28;20052;-39
2023/04/27 05:31:40;;;;;;;8.43;4.90;;;8.50;99.90;;;8.07;100.00;97351.47;5012230;28;20414;-38
2023/04/27 05:34:07;;;;;;;8.05;4.63;;;8.60;99.90;;;8.15;100.00;97360.88;5059364;22;20060;-37
2023/04/27 05:36:32;;;;;;;9.93;5.00;;;8.70;99.90;;;8.29;100.00;97355.22;5051334;28;20475;-37
2023/04/27 05:38:58;;;;;;;9.02;4.97;;;8.80;99.90;;;8.34;100.00;97353.31;5051015;28;20532;-37
2023/04/27 05:41:24;;;;;;;9.45;4.72;;;8.90;99.90;;;8.50;100.00;97366.03;5051580;28;20025;-38
2023/04/27 05:43:50;;;;;;;7.20;4.88;;;9.00;99.90;;;8.57;100.00;97352.66;5048780;28;20484;-37
2023/04/27 05:46:15;;;;;;;9.85;4.68;;;9.00;99.90;;;8.69;100.00;97359.34;5050917;28;20021;-38
2023/04/27 05:48:41;;;;;;;9.40;5.13;;;9.20;99.90;;;8.67;100.00;97341.88;5051133;28;20519;-38
2023/04/27 05:51:07;;;;;;;8.05;4.55;;;9.30;99.90;;;8.81;100.00;97350.25;5043444;28;20036;-39
2023/04/27 05:53:33;;;;;;;7.53;4.75;;;9.30;99.90;;;8.98;100.00;97363.72;5053188;28;20028;-38
2023/04/27 05:56:00;;;;;;;6.65;4.38;;;9.50;99.90;;;9.06;100.00;97359.97;5050618;28;20039;-38
2023/04/27 05:58:26;;;;;;;7.28;4.78;;;9.60;99.90;;;9.18;100.00;97375.38;5044367;28;20711;-39
2023/04/27 06:00:53;;;;;;;9.18;5.13;;;9.70;99.90;;;9.29;100.00;97369.78;5051409;28;20036;-39
2023/04/27 06:03:19;;;;;;;8.93;5.30;;;9.80;99.90;;;9.36;100.00;97376.56;5051274;28;20032;-39
2023/04/27 06:05:45;;;;;;;7.03;5.40;;;9.90;99.90;;;9.50;100.00;97378.75;5053108;28;20036;-38
2023/04/27 06:08:11;;;;;;;9.50;5.10;;;9.90;99.90;;;9.60;100.00;97381.91;5042495;28;20415;-41
2023/04/27 06:10:38;;;;;;;11.25;5.85;;;10.00;99.90;;;9.71;100.00;97379.81;5051825;28;20655;-38
2023/04/27 06:13:04;;;;;;;9.77;6.13;;;10.20;99.90;;;9.82;100.00;97382.09;5053251;28;20481;-41
2023/04/27 06:15:29;;;;;;;9.27;5.45;;;10.30;99.90;;;9.97;100.00;97376.25;5051438;28;20118;-39
2023/04/27 06:17:55;;;;;;;8.18;5.22;;;10.40;99.90;;;10.11;99.87;97376.63;5049574;28;20123;-37
2023/04/27 06:20:21;;;;;;;9.52;5.28;;;10.50;99.90;;;10.21;95.99;97374.56;5053949;28;20568;-37
2023/04/27 06:22:47;;;;;;;10.65;5.80;;;10.60;99.90;;;10.30;91.64;97383.88;5047473;28;20036;-37
2023/04/27 06:25:12;;;;;;;9.00;5.93;;;10.80;99.90;;;10.44;92.05;97380.78;5053472;28;20500;-37
2023/04/27 06:27:38;;;;;;;13.13;5.40;;;10.90;99.90;;;10.54;87.88;97390.09;5054142;28;20036;-37
2023/04/27 06:30:05;;;;;;;10.10;5.13;;;11.00;99.90;;;10.64;87.48;97382.69;5055294;28;20277;-36
2023/04/27 06:32:30;;;;;;;7.70;4.50;;;11.10;99.90;;;10.87;85.77;97395.88;5052631;28;20037;-37
2023/04/27 06:34:56;;;;;;;15.18;5.85;;;11.20;99.90;;;10.93;81.52;97393.91;5052457;28;20040;-37
2023/04/27 06:37:22;;;;;;;11.27;5.75;;;11.40;99.90;;;11.05;79.38;97398.72;5051984;28;20136;-37
2023/04/27 06:39:48;;;;;;;8.77;4.82;;;11.50;99.90;;;11.11;79.50;97398.50;5046357;28;20099;-37
2023/04/27 06:42:13;;;;;;;13.90;5.53;;;11.50;99.90;;;11.19;78.94;97396.38;5049920;28;20490;-37
2023/04/27 06:44:39;;;;;;;9.13;5.25;;;11.60;99.90;;;11.28;78.10;97397.81;5046798;28;20028;-37
2023/04/27 06:47:05;;;;;;;7.72;4.90;;;11.70;99.90;;;11.37;79.45;97399.22;5048894;28;20063;-37
2023/04/27 06:49:31;;;;;;;8.93;4.38;;;11.80;99.90;;;11.49;78.10;97405.81;5049535;28;20033;-37
2023/04/27 06:51:56;;;;;;;11.82;4.47;;;11.90;99.90;;;11.58;74.73;97406.28;5047848;28;20025;-37
2023/04/27 06:54:22;;;;;;;11.63;4.78;;;11.90;99.90;;;11.67;71.97;97396.28;5048337;28;20432;-37
2023/04/27 06:56:48;;;;;;;14.57;5.50;;;12.10;99.90;;;11.89;69.55;97412.94;5048644;28;20048;-37
2023/04/27 06:59:13;;;;;;;11.00;4.82;;;12.30;99.90;;;11.86;68.26;97413.03;5050582;28;20203;-37
2023/04/27 07:01:39;;;;;;;8.20;4.25;;;12.30;99.90;;;12.16;68.92;97402.13;5050956;28;20036;-37
2023/04/27 07:04:05;;;;;;;7.93;4.53;;;12.50;99.90;;;12.47;68.04;97411.38;5052488;28;20485;-37
2023/04/27 07:06:31;;;;;;;10.48;4.68;;;12.80;99.90;;;12.66;62.01;97412.25;5048066;28;20044;-37
2023/04/27 07:08:57;;;;;;;7.97;4.63;;;13.00;99.90;;;12.98;61.83;97409.94;5048635;28;20036;-37
2023/04/27 07:11:23;;;;;;;9.93;5.20;;;13.20;99.90;;;13.11;63.46;97412.88;5051502;28;20075;-37
2023/04/27 07:13:49;;;;;;;13.55;4.78;;;13.50;99.90;;;13.22;59.17;97415.00;5050384;28;20286;-37
2023/04/27 07:16:15;;;;;;;8.77;4.63;;;13.60;99.90;;;13.51;59.04;97413.63;5048966;28;20514;-37
2023/04/27 07:18:42;;;;;;;6.18;3.80;;;13.80;99.90;;;13.83;58.33;97404.09;5049081;28;20528;-37
2023/04/27 07:21:09;;;;;;;14.68;4.85;;;14.10;99.90;;;14.03;55.25;97415.50;5051653;28;20060;-37
2023/04/27 07:23:34;;;;;;;8.15;4.13;;;14.20;99.90;;;14.05;56.29;97400.38;5049243;28;20507;-37
2023/04/27 07:26:01;;;;;;;7.53;4.03;;;14.20;99.90;;;13.86;54.04;97408.41;5052083;28;20033;-37
2023/04/27 07:28:28;;;;;;;6.97;3.85;;;14.10;99.90;;;13.80;54.46;97408.69;5050974;28;20482;-37
2023/04/27 07:30:53;;;;;;;7.68;3.38;;;13.90;99.90;;;13.72;51.54;97411.75;5052234;28;20116;-37
2023/04/27 07:33:19;;;;;;;6.28;3.63;;;13.90;99.90;;;13.60;53.97;97396.44;5051688;28;20024;-37
2023/04/27 07:35:45;;;;;;;6.95;4.30;;;13.80;99.90;;;13.54;55.19;97408.19;5049230;28;20091;-37
2023/04/27 07:38:10;;;;;;;9.60;4.18;;;13.70;99.90;;;13.51;55.51;97409.22;5050273;28;20032;-37
2023/04/27 07:40:36;;;;;;;8.48;3.90;;;13.70;99.90;;;13.52;54.71;97402.13;5048294;28;20443;-37
2023/04/27 07:43:02;;;;;;;6.68;3.45;;;13.80;99.90;;;13.55;55.34;97400.19;5052149;28;20032;-37
2023/04/27 07:45:32;;;;;;;7.00;4.18;;;13.80;99.90;;;13.48;55.50;97398.75;5049589;28;20118;-37
2023/04/27 07:47:59;;;;;;;8.85;3.88;;;13.70;99.90;;;13.22;54.67;97401.78;5048722;28;20025;-37
2023/04/27 07:50:29;;;;;;;7.63;4.15;;;13.60;99.90;;;13.22;56.45;97401.78;5049240;28;20044;-37
2023/04/27 07:52:55;;;;;;;5.00;3.20;;;13.60;99.90;;;13.32;56.85;97397.78;5051957;28;20036;-37
2023/04/27 07:55:22;;;;;;;5.78;3.15;;;13.60;99.90;;;13.47;55.88;97404.97;5050821;28;20509;-37
2023/04/27 07:57:49;;;;;;;6.93;3.55;;;13.70;99.90;;;13.61;55.59;97390.22;5049032;28;20021;-37
2023/04/27 08:00:16;;;;;;;8.40;4.40;;;13.80;99.90;;;13.74;56.75;97394.81;5042838;28;20431;-37
2023/04/27 08:02:42;;;;;;;9.45;4.28;;;14.00;99.90;;;13.72;57.19;97398.50;5051949;28;20035;-37
2023/04/27 08:05:08;;;;;;;6.10;3.97;;;14.00;99.90;;;13.73;57.16;97394.91;5051040;28;20037;-37
2023/04/27 08:07:34;;;;;;;9.50;4.47;;;14.00;99.90;;;13.68;54.36;97400.44;5053135;28;20176;-37
2023/04/27 08:10:00;;;;;;;10.02;4.70;;;14.00;99.90;;;13.56;56.11;97404.53;5052487;28;20039;-37
2023/04/27 08:12:25;;;;;;;8.48;4.30;;;14.00;99.90;;;13.53;56.29;97398.53;5047896;28;20180;-37
2023/04/27 08:14:51;;;;;;;9.75;4.38;;;13.90;99.90;;;13.50;54.34;97394.25;5048297;28;20063;-37
2023/04/27 08:17:18;;;;;;;11.88;4.88;;;13.80;99.90;;;13.43;56.98;97390.19;5050481;28;20020;-37
2023/04/27 08:19:44;;;;;;;8.80;4.22;;;13.80;99.90;;;13.46;57.25;97387.38;5049132;28;20025;-37
2023/04/27 08:22:09;;;;;;;8.80;4.43;;;13.80;99.90;;;13.53;57.70;97383.50;5047461;28;20120;-37
2023/04/27 08:24:36;;;;;;;7.70;4.38;;;13.90;99.90;;;13.53;55.57;97388.81;5045116;28;20541;-37
2023/04/27 08:27:04;;;;;;;7.35;3.75;;;13.90;99.90;;;13.57;55.88;97378.91;5049154;28;20032;-37
2023/04/27 08:29:30;;;;;;;7.95;4.28;;;13.90;99.90;;;13.58;56.95;97385.91;5049226;28;20036;-37
2023/04/27 08:32:00;;;;;;;8.15;3.72;;;13.90;99.90;;;13.62;56.11;97383.97;5048634;28;20052;-37
2023/04/27 08:34:28;;;;;;;10.85;4.47;;;13.90;99.90;;;13.54;54.36;97374.59;5052822;28;20032;-37
2023/04/27 08:36:55;;;;;;;8.95;3.60;;;13.90;99.90;;;13.58;54.76;97379.75;5053034;28;20037;-37
2023/04/27 08:39:21;;;;;;;6.95;3.50;;;13.90;99.90;;;13.62;53.62;97386.63;5055544;28;20021;-39
2023/04/27 08:41:47;;;;;;;7.78;3.92;;;13.90;99.90;;;13.63;53.52;97378.59;5052357;28;20587;-37
2023/04/27 08:44:12;;;;;;;10.30;3.55;;;13.90;99.90;;;13.73;53.08;97376.38;5054240;28;20037;-37
2023/04/27 08:46:38;;;;;;;6.05;3.13;;;14.00;99.90;;;13.80;51.28;97374.25;5050774;28;20086;-37
2023/04/27 08:49:05;;;;;;;4.20;3.25;;;14.10;99.50;;;13.74;51.71;97370.97;5050270;28;20032;-37
2023/04/27 08:51:32;;;;;;;8.40;4.22;;;14.00;99.20;;;13.75;53.38;97366.53;5051489;28;20048;-38
2023/04/27 08:53:58;;;;;;;6.75;4.20;;;14.10;99.90;;;13.88;55.75;97367.63;5051590;28;20024;-37
2023/04/27 08:56:28;;;;;;;6.30;4.10;;;14.20;99.90;;;13.92;53.79;97373.63;5052664;28;20032;-37
2023/04/27 08:58:55;;;;;;;9.45;4.28;;;14.30;99.90;;;14.17;53.58;97367.91;5053717;28;20056;-37
2023/04/27 09:01:23;;;;;;;9.65;3.60;;;14.50;99.90;;;14.33;53.00;97367.97;5052485;28;20232;-37
2023/04/27 09:03:55;;;;;;;10.50;3.67;;;14.70;99.90;;;14.51;52.44;97374.13;5054188;28;20097;-37
2023/04/27 09:06:32;;;;;;;8.73;3.88;;;14.80;99.70;;;14.72;51.79;97376.59;5058069;28;20032;-37
2023/04/27 09:08:59;;;;;;;10.80;4.50;;;15.00;99.30;;;14.68;48.94;97368.78;5057185;28;20461;-37
2023/04/27 09:11:35;;;;;;;12.70;4.53;;;15.10;97.90;;;14.53;49.09;97372.22;5059489;28;20561;-37
2023/04/27 09:14:23;;;;;;;7.30;4.32;;;15.10;97.80;;;14.52;50.96;97366.06;5056117;28;20616;-37
2023/04/27 09:16:58;;;;;;;10.07;4.25;;;15.00;98.40;;;14.62;50.76;97373.56;5054604;28;20813;-37
2023/04/27 09:19:29;;;;;;;5.72;3.50;;;15.10;98.10;;;14.80;51.33;97377.03;5055764;28;20032;-37
2023/04/27 09:22:10;;;;;;;7.35;3.15;;;15.20;98.60;;;14.97;50.86;97384.09;5055267;28;20078;-38
2023/04/27 09:24:36;;;;;;;13.05;4.25;;;15.30;98.40;;;14.84;47.81;97386.53;5050384;28;20068;-39
2023/04/27 09:27:03;;;;;;;7.47;4.20;;;15.30;96.20;;;14.85;48.90;97382.94;5053493;28;20079;-38
2023/04/27 09:29:38;;;;;;;6.53;3.72;;;15.30;97.20;;;14.85;48.43;97380.28;5057772;28;20472;-38
2023/04/27 09:32:21;;;;;;;8.75;4.30;;;15.40;96.40;;;14.83;50.01;97380.38;5051396;28;20381;-39
2023/04/27 09:34:47;;;;;;;7.53;3.35;;;15.40;96.90;;;14.99;49.55;97380.41;5054892;28;20028;-39
2023/04/27 09:37:13;;;;;;;7.25;4.13;;;15.40;97.10;;;14.83;47.63;97379.53;5056070;28;20094;-39
2023/04/27 09:39:40;;;;;;;8.15;3.45;;;15.40;95.40;;;14.94;48.27;97361.19;5054764;28;20331;-38
2023/04/27 09:42:07;;;;;;;7.43;4.25;;;15.40;95.90;;;14.81;48.38;97378.75;5052712;28;20048;-40
2023/04/27 09:44:33;;;;;;;8.30;4.15;;;15.40;95.70;;;14.51;47.23;97382.91;5054991;28;20488;-39
2023/04/27 09:47:00;;;;;;;10.02;4.10;;;15.20;94.80;;;14.56;46.95;97377.38;5050309;28;20056;-37
2023/04/27 09:49:27;;;;;;;15.70;4.82;;;15.10;94.60;;;14.44;46.73;97380.69;5054331;28;20120;-37
2023/04/27 09:51:57;;;;;;;9.52;3.97;;;15.00;94.40;;;14.60;47.52;97375.44;5055938;28;20116;-37
2023/04/27 09:54:26;;;;;;;6.70;3.80;;;15.10;94.90;;;14.70;47.29;97358.94;5055369;28;20032;-37
2023/04/27 09:57:16;;;;;;;8.40;4.03;;;15.20;95.10;;;14.68;47.55;97359.97;5055355;28;20446;-37
2023/04/27 10:00:18;;;;;;;8.20;3.65;;;15.20;95.20;;;14.80;50.05;97366.41;5050533;28;20073;-37
2023/04/27 10:03:15;;;;;;;7.20;4.13;;;15.20;96.10;;;15.02;49.00;97363.41;5059071;28;20047;-37
2023/04/27 10:06:15;;;;;;;8.45;3.50;;;15.30;96.30;;;14.89;49.63;97366.78;5056417;28;20045;-37
2023/04/27 10:08:41;;;;;;;5.32;3.97;;;15.30;96.30;;;14.69;49.14;97365.19;5053971;28;20041;-37
2023/04/27 10:11:18;;;;;;;6.85;3.78;;;15.10;96.00;;;14.54;49.90;97378.41;5053573;28;20036;-37
2023/04/27 10:13:54;;;;;;;8.30;4.07;;;14.90;96.20;;;14.35;50.02;97375.88;5050305;28;20033;-37
2023/04/27 10:16:20;;;;;;;5.10;3.70;;;14.80;96.10;;;14.23;53.02;97370.28;5054954;28;20024;-37
2023/04/27 10:18:55;;;;;;;7.88;3.30;;;14.70;96.60;;;14.26;50.82;97371.91;5056377;28;20055;-37
2023/04/27 10:21:22;;;;;;;10.82;3.65;;;14.70;97.00;;;14.31;51.16;97369.88;5057416;28;20032;-37